createdAt,value
2022-08-28T00:00:12.898Z,5.03
2022-08-28T00:02:42.966Z,5.82
2022-08-28T00:05:12.877Z,5.72
2022-08-28T00:07:46.975Z,5.95
2022-08-28T00:10:18.970Z,5.72
2022-08-28T00:12:49.194Z,5.32
2022-08-28T00:15:20.335Z,6.22
2022-08-28T00:17:51.351Z,6.22
2022-08-28T00:20:23.167Z,5.85
2022-08-28T00:22:53.179Z,6.13
2022-08-28T00:25:24.599Z,5.60
2022-08-28T00:27:55.606Z,5.93
2022-08-28T00:30:27.901Z,6.25
2022-08-28T00:33:00.288Z,6.30
2022-08-28T00:35:30.362Z,6.95
2022-08-28T00:37:59.316Z,6.32
2022-08-28T00:40:32.943Z,6.25
2022-08-28T00:43:04.501Z,6.38
2022-08-28T00:45:39.326Z,6.93
2022-08-28T00:48:10.381Z,6.40
2022-08-28T00:51:00.347Z,6.15
2022-08-28T00:53:32.851Z,6.85
2022-08-28T00:56:10.363Z,6.10
2022-08-28T00:58:44.916Z,5.53
2022-08-28T01:01:14.703Z,7.38
2022-08-28T01:03:46.311Z,6.50
2022-08-28T01:06:16.634Z,7.13
2022-08-28T01:08:50.602Z,6.97
2022-08-28T01:11:21.002Z,6.30
2022-08-28T01:13:54.343Z,6.45
2022-08-28T01:16:28.365Z,7.40
2022-08-28T01:19:05.467Z,7.53
2022-08-28T01:21:40.871Z,7.13
2022-08-28T01:24:14.713Z,6.28
2022-08-28T01:26:44.245Z,7.43
2022-08-28T01:29:13.225Z,6.57
2022-08-28T01:31:43.263Z,7.50
2022-08-28T01:34:13.099Z,7.82
2022-08-28T01:36:43.440Z,7.13
2022-08-28T01:39:15.986Z,6.68
2022-08-28T01:41:47.500Z,6.97
2022-08-28T01:44:18.259Z,7.55
2022-08-28T01:46:47.750Z,7.38
2022-08-28T01:49:17.115Z,7.22
2022-08-28T01:51:46.889Z,6.97
2022-08-28T01:54:19.230Z,7.40
2022-08-28T01:56:48.025Z,7.57
2022-08-28T01:59:17.107Z,8.40
2022-08-28T02:01:46.790Z,9.23
2022-08-28T02:04:16.854Z,8.07
2022-08-28T02:06:45.419Z,7.80
2022-08-28T02:09:15.021Z,7.25
2022-08-28T02:11:46.571Z,8.40
2022-08-28T02:14:16.706Z,8.20
2022-08-28T02:16:45.438Z,8.35
2022-08-28T02:19:14.398Z,8.27
2022-08-28T02:21:42.839Z,8.10
2022-08-28T02:24:12.082Z,8.15
2022-08-28T02:26:41.027Z,8.48
2022-08-28T02:29:10.750Z,7.78
2022-08-28T02:31:40.131Z,8.75
2022-08-28T02:34:11.034Z,8.63
2022-08-28T02:36:43.034Z,8.98
2022-08-28T02:39:12.111Z,9.02
2022-08-28T02:41:41.311Z,9.02
2022-08-28T02:44:11.263Z,9.18
2022-08-28T02:46:40.335Z,9.20
2022-08-28T02:49:08.659Z,8.32
2022-08-28T02:51:37.884Z,8.55
2022-08-28T02:54:06.314Z,8.60
2022-08-28T02:56:35.443Z,8.52
2022-08-28T02:59:04.288Z,8.80
2022-08-28T03:01:34.969Z,8.02
2022-08-28T03:04:03.811Z,8.82
2022-08-28T03:06:34.154Z,8.73
2022-08-28T03:09:02.736Z,9.23
2022-08-28T03:11:31.207Z,8.88
2022-08-28T03:14:02.942Z,9.05
2022-08-28T03:16:32.886Z,9.70
2022-08-28T03:19:03.758Z,8.90
2022-08-28T03:21:32.909Z,10.52
2022-08-28T03:24:00.641Z,9.57
2022-08-28T03:26:29.681Z,10.02
2022-08-28T03:28:59.726Z,8.93
2022-08-28T03:31:33.089Z,9.18
2022-08-28T03:34:03.882Z,9.82
2022-08-28T03:36:34.236Z,11.07
2022-08-28T03:39:05.871Z,9.77
2022-08-28T03:41:35.395Z,11.02
2022-08-28T03:44:05.058Z,11.90
2022-08-28T03:46:34.750Z,11.50
2022-08-28T03:49:06.499Z,10.93
2022-08-28T03:51:36.105Z,10.80
2022-08-28T03:54:05.576Z,10.85
2022-08-28T03:56:34.513Z,10.20
2022-08-28T03:59:05.691Z,11.75
2022-08-28T04:01:34.896Z,11.68
2022-08-28T04:04:05.657Z,11.93
2022-08-28T04:06:34.010Z,11.45
2022-08-28T04:09:05.060Z,11.63
2022-08-28T04:11:38.349Z,11.35
2022-08-28T04:14:07.522Z,12.50
2022-08-28T04:16:36.722Z,11.73
2022-08-28T04:19:07.281Z,11.00
2022-08-28T04:21:36.127Z,12.30
2022-08-28T04:24:09.407Z,11.18
2022-08-28T04:26:38.434Z,12.07
2022-08-28T04:29:08.137Z,12.25
2022-08-28T04:31:37.795Z,12.40
2022-08-28T04:34:09.195Z,12.38
2022-08-28T04:36:39.391Z,12.48
2022-08-28T04:39:10.210Z,12.18
2022-08-28T04:41:39.514Z,11.15
2022-08-28T04:44:08.943Z,12.70
2022-08-28T04:46:38.527Z,13.60
2022-08-28T04:49:09.170Z,12.20
2022-08-28T04:51:41.875Z,14.43
2022-08-28T04:54:12.271Z,12.73
2022-08-28T04:56:40.911Z,13.35
2022-08-28T04:59:10.463Z,12.82
2022-08-28T05:01:39.236Z,12.45
2022-08-28T05:04:11.947Z,12.52
2022-08-28T05:06:43.887Z,13.15
2022-08-28T05:09:12.204Z,13.13
2022-08-28T05:11:41.299Z,12.20
2022-08-28T05:14:15.393Z,13.43
2022-08-28T05:16:47.949Z,13.40
2022-08-28T05:19:19.371Z,13.38
2022-08-28T05:21:49.065Z,14.73
2022-08-28T05:24:18.060Z,13.10
2022-08-28T05:26:48.319Z,12.90
2022-08-28T05:29:17.742Z,13.07
2022-08-28T05:31:47.848Z,15.10
2022-08-28T05:34:17.829Z,13.48
2022-08-28T05:36:46.953Z,13.13
2022-08-28T05:39:17.370Z,14.63
2022-08-28T05:41:47.653Z,12.93
2022-08-28T05:44:18.029Z,13.57
2022-08-28T05:46:49.051Z,13.23
2022-08-28T05:49:20.400Z,12.73
2022-08-28T05:51:50.890Z,12.68
2022-08-28T05:54:19.956Z,12.88
2022-08-28T05:56:49.309Z,12.55
2022-08-28T05:59:18.756Z,13.68
2022-08-28T06:01:49.206Z,13.82
2022-08-28T06:04:24.094Z,13.27
2022-08-28T06:06:52.783Z,13.85
2022-08-28T06:09:28.759Z,13.38
2022-08-28T06:12:00.259Z,13.20
2022-08-28T06:14:29.715Z,12.63
2022-08-28T06:16:59.887Z,14.68
2022-08-28T06:19:31.920Z,13.27
2022-08-28T06:22:07.287Z,14.05
2022-08-28T06:24:36.448Z,13.75
2022-08-28T06:27:06.175Z,13.38
2022-08-28T06:29:34.876Z,14.60
2022-08-28T06:32:05.952Z,14.50
2022-08-28T06:34:35.777Z,12.85
2022-08-28T06:37:04.982Z,14.88
2022-08-28T06:39:33.352Z,13.88
2022-08-28T06:42:02.002Z,13.38
2022-08-28T06:44:32.565Z,13.07
2022-08-28T06:47:00.923Z,13.80
2022-08-28T06:49:29.715Z,13.88
2022-08-28T06:51:59.815Z,14.00
2022-08-28T06:54:30.913Z,13.68
2022-08-28T06:56:59.837Z,14.00
2022-08-28T07:02:19.180Z,12.80
2022-08-28T07:04:51.760Z,13.85
2022-08-28T07:07:32.426Z,12.68
2022-08-28T07:10:01.183Z,12.68
2022-08-28T07:12:30.259Z,13.63
2022-08-28T07:14:58.626Z,13.20
2022-08-28T07:17:27.750Z,13.52
2022-08-28T07:19:56.587Z,14.10
2022-08-28T07:22:26.550Z,13.75
2022-08-28T07:24:55.957Z,13.82
2022-08-28T07:27:25.259Z,13.20
2022-08-28T07:29:54.430Z,13.35
2022-08-28T07:32:22.779Z,14.43
2022-08-28T07:34:52.273Z,12.63
2022-08-28T07:37:20.842Z,12.95
2022-08-28T07:39:51.323Z,14.40
2022-08-28T07:42:35.664Z,14.15
2022-08-28T07:45:05.435Z,13.90
2022-08-28T07:47:34.178Z,13.27
2022-08-28T07:50:03.321Z,13.25
2022-08-28T07:52:31.658Z,13.20
2022-08-28T07:55:01.691Z,13.75
2022-08-28T07:57:32.415Z,13.52
2022-08-28T08:00:00.727Z,13.60
2022-08-28T08:02:30.398Z,12.60
2022-08-28T08:04:59.069Z,13.40
2022-08-28T08:07:27.374Z,12.95
2022-08-28T08:09:56.487Z,12.77
2022-08-28T08:12:29.492Z,12.82
2022-08-28T08:14:57.916Z,12.90
2022-08-28T08:17:27.135Z,12.35
2022-08-28T08:19:55.567Z,11.45
2022-08-28T08:22:25.649Z,10.65
2022-08-28T08:24:55.285Z,10.77
2022-08-28T08:27:24.586Z,11.63
2022-08-28T08:29:54.618Z,10.38
2022-08-28T08:32:23.008Z,11.65
2022-08-28T08:34:56.014Z,11.45
2022-08-28T08:37:24.823Z,11.02
2022-08-28T08:39:54.613Z,10.43
2022-08-28T08:42:26.876Z,10.18
2022-08-28T08:44:59.370Z,10.23
2022-08-28T08:47:36.399Z,9.60
2022-08-28T08:50:08.452Z,10.63
2022-08-28T08:52:41.419Z,9.93
2022-08-28T08:55:32.615Z,9.77
2022-08-28T08:58:07.542Z,10.15
2022-08-28T09:00:44.644Z,9.90
2022-08-28T09:03:17.123Z,10.15
2022-08-28T09:05:50.793Z,9.55
2022-08-28T09:08:32.834Z,10.48
2022-08-28T09:11:07.548Z,8.85
2022-08-28T09:13:47.350Z,9.48
2022-08-28T09:16:25.215Z,8.90
2022-08-28T09:18:57.320Z,8.88
2022-08-28T09:21:31.143Z,9.38
2022-08-28T09:24:05.756Z,9.05
2022-08-28T09:26:35.816Z,8.93
2022-08-28T09:29:07.734Z,9.07
2022-08-28T09:31:41.579Z,9.40
2022-08-28T09:34:24.054Z,9.50
2022-08-28T09:36:54.213Z,8.63
2022-08-28T09:39:24.741Z,8.73
2022-08-28T09:42:15.590Z,9.05
2022-08-28T09:44:53.606Z,8.63
2022-08-28T09:47:46.048Z,8.57
2022-08-28T09:50:35.169Z,8.55
2022-08-28T09:53:20.974Z,8.35
2022-08-28T09:55:57.927Z,7.70
2022-08-28T09:58:39.061Z,9.05
2022-08-28T10:01:38.097Z,7.93
2022-08-28T10:04:25.840Z,8.23
2022-08-28T10:06:58.286Z,8.13
2022-08-28T10:09:34.115Z,7.70
2022-08-28T10:12:15.585Z,8.38
2022-08-28T10:14:55.177Z,7.47
2022-08-28T10:17:38.318Z,7.60
2022-08-28T10:20:15.935Z,7.53
2022-08-28T10:22:53.883Z,7.82
2022-08-28T10:25:28.180Z,7.95
2022-08-28T10:28:12.844Z,7.32
2022-08-28T10:30:53.341Z,6.75
2022-08-28T10:33:36.709Z,6.80
2022-08-28T10:36:26.441Z,6.57
2022-08-28T10:39:13.035Z,6.75
2022-08-28T10:41:47.278Z,7.15
2022-08-28T10:44:22.040Z,7.05
2022-08-28T10:46:53.513Z,6.55
2022-08-28T10:49:27.567Z,6.32
2022-08-28T10:52:03.277Z,6.32
2022-08-28T10:54:41.811Z,6.97
2022-08-28T10:57:23.550Z,6.10
2022-08-28T10:59:54.749Z,6.45
2022-08-28T11:02:27.045Z,5.95
2022-08-28T11:04:58.923Z,5.80
2022-08-28T11:07:33.502Z,6.10
2022-08-28T11:10:45.768Z,5.50
2022-08-28T11:13:34.413Z,5.82
2022-08-28T11:16:13.316Z,6.72
2022-08-28T11:19:15.432Z,6.90
2022-08-28T11:21:48.971Z,7.03
2022-08-28T11:24:35.194Z,6.60
2022-08-28T11:27:17.977Z,6.07
2022-08-28T11:30:22.748Z,6.30
2022-08-28T11:33:08.114Z,6.10
2022-08-28T11:35:44.387Z,5.68
2022-08-28T11:38:15.598Z,6.45
2022-08-28T11:41:11.173Z,5.53
2022-08-28T11:43:41.670Z,4.97
2022-08-28T11:46:26.276Z,5.00
2022-08-28T11:48:57.352Z,5.32
2022-08-28T11:51:56.936Z,4.82
2022-08-28T11:54:39.420Z,4.68
2022-08-28T11:57:18.710Z,4.68
2022-08-28T12:00:02.623Z,4.97
2022-08-28T12:02:50.553Z,5.18
2022-08-28T12:05:54.927Z,5.18
2022-08-28T12:09:09.573Z,4.90
2022-08-28T12:11:59.501Z,5.25
2022-08-28T12:15:08.885Z,4.88
2022-08-28T12:17:50.121Z,4.97
2022-08-28T12:20:40.314Z,5.05
2022-08-28T12:23:41.450Z,5.28
2022-08-28T12:26:18.918Z,4.82
2022-08-28T12:28:50.459Z,5.32
2022-08-28T12:32:13.453Z,5.30
2022-08-28T12:34:53.927Z,5.32
2022-08-28T12:37:51.015Z,5.28
2022-08-28T12:40:25.279Z,4.80
2022-08-28T12:42:56.575Z,4.22
2022-08-28T12:45:29.129Z,5.03
2022-08-28T12:48:01.042Z,4.60
2022-08-28T12:50:35.605Z,4.80
2022-08-28T12:53:12.624Z,4.57
2022-08-28T12:55:42.002Z,4.55
2022-08-28T12:58:15.370Z,4.47
2022-08-28T13:00:54.210Z,4.90
2022-08-28T13:03:23.599Z,4.72
2022-08-28T13:06:01.346Z,5.15
2022-08-28T13:08:30.602Z,4.95
2022-08-28T13:10:59.362Z,4.63
2022-08-28T13:13:35.810Z,5.03
2022-08-28T13:16:06.177Z,4.28
2022-08-28T13:18:51.788Z,4.15
2022-08-28T13:21:34.023Z,4.60
2022-08-28T13:24:27.591Z,4.03
2022-08-28T13:27:07.016Z,4.38
2022-08-28T13:29:36.850Z,4.00
2022-08-28T13:32:08.395Z,4.53
2022-08-28T13:34:48.049Z,4.18
2022-08-28T13:37:44.432Z,4.32
2022-08-28T13:40:38.154Z,4.07
2022-08-28T13:43:08.105Z,4.32
2022-08-28T13:45:43.520Z,4.50
2022-08-28T13:48:14.334Z,4.32
2022-08-28T13:50:46.601Z,4.00
2022-08-28T13:53:19.529Z,4.07
2022-08-28T13:55:50.453Z,3.80
2022-08-28T13:58:19.123Z,3.83
2022-08-28T14:00:51.118Z,3.90
2022-08-28T14:03:38.906Z,4.03
2022-08-28T14:06:12.292Z,4.03
2022-08-28T14:08:44.080Z,4.22
2022-08-28T14:11:15.073Z,3.78
2022-08-28T14:13:46.881Z,3.25
2022-08-28T14:16:24.596Z,3.30
2022-08-28T14:18:54.232Z,3.83
2022-08-28T14:21:24.361Z,3.35
2022-08-28T14:23:54.772Z,3.30
2022-08-28T14:26:23.565Z,3.30
2022-08-28T14:28:51.870Z,3.45
2022-08-28T14:31:21.112Z,3.53
2022-08-28T14:33:55.089Z,3.53
2022-08-28T14:36:27.059Z,3.65
2022-08-28T14:39:02.828Z,3.67
2022-08-28T14:41:35.565Z,3.15
2022-08-28T14:44:04.989Z,3.78
2022-08-28T14:46:36.557Z,3.42
2022-08-28T14:49:08.786Z,3.67
2022-08-28T14:51:39.379Z,3.75
2022-08-28T14:54:12.693Z,3.47
2022-08-28T14:56:41.710Z,3.92
2022-08-28T14:59:17.539Z,3.58
2022-08-28T15:01:49.471Z,3.92
2022-08-28T15:04:23.015Z,3.35
2022-08-28T15:06:52.707Z,3.60
2022-08-28T15:09:23.016Z,3.67
2022-08-28T15:11:51.394Z,3.55
2022-08-28T15:14:20.742Z,3.45
2022-08-28T15:16:50.678Z,3.50
2022-08-28T15:19:19.559Z,3.33
2022-08-28T15:21:51.526Z,3.90
2022-08-28T15:24:24.613Z,3.58
2022-08-28T15:26:54.236Z,3.45
2022-08-28T15:29:22.547Z,3.97
2022-08-28T15:31:53.261Z,4.22
2022-08-28T15:34:24.162Z,4.20
2022-08-28T15:36:55.676Z,4.13
2022-08-28T15:39:44.292Z,5.03
2022-08-28T15:42:13.517Z,5.70
2022-08-28T15:44:43.090Z,4.80
2022-08-28T15:47:12.540Z,4.35
2022-08-28T15:49:46.137Z,3.75
2022-08-28T15:52:19.947Z,4.00
2022-08-28T15:54:50.074Z,4.50
2022-08-28T15:57:19.469Z,4.32
2022-08-28T15:59:49.828Z,4.30
2022-08-28T16:02:20.971Z,4.53
2022-08-28T16:04:50.016Z,4.50
2022-08-28T16:07:20.060Z,4.97
2022-08-28T16:09:50.454Z,4.05
2022-08-28T16:12:19.231Z,3.95
2022-08-28T16:14:48.724Z,3.90
2022-08-28T16:17:18.677Z,4.30
2022-08-28T16:19:48.397Z,3.97
2022-08-28T16:22:18.642Z,4.13
2022-08-28T16:24:47.094Z,3.65
2022-08-28T16:27:17.655Z,3.95
2022-08-28T16:29:49.469Z,4.13
2022-08-28T16:32:21.631Z,4.25
2022-08-28T16:34:50.182Z,4.28
2022-08-28T16:37:20.966Z,4.10
2022-08-28T16:39:56.458Z,3.90
2022-08-28T16:42:28.646Z,4.22
2022-08-28T16:45:02.061Z,4.00
2022-08-28T16:47:33.019Z,3.97
2022-08-28T16:50:08.872Z,3.88
2022-08-28T16:52:38.016Z,4.00
2022-08-28T16:55:08.591Z,3.70
2022-08-28T16:57:39.595Z,4.07
2022-08-28T17:00:13.577Z,4.07
2022-08-28T17:02:43.313Z,3.90
2022-08-28T17:05:13.299Z,3.80
2022-08-28T17:07:43.994Z,3.75
2022-08-28T17:10:14.233Z,3.58
2022-08-28T17:12:44.646Z,4.13
2022-08-28T17:15:13.908Z,4.35
2022-08-28T17:17:43.364Z,4.13
2022-08-28T17:20:33.483Z,4.25
2022-08-28T17:23:02.234Z,4.20
2022-08-28T17:25:31.084Z,3.85
2022-08-28T17:28:01.360Z,3.83
2022-08-28T17:30:30.725Z,4.38
2022-08-28T17:32:59.112Z,4.05
2022-08-28T17:35:27.812Z,4.40
2022-08-28T17:37:57.464Z,4.55
2022-08-28T17:40:26.187Z,4.20
2022-08-28T17:42:55.463Z,4.30
2022-08-28T17:45:25.506Z,4.45
2022-08-28T17:47:54.318Z,4.28
2022-08-28T17:50:23.478Z,4.63
2022-08-28T17:52:52.219Z,4.43
2022-08-28T17:55:21.291Z,4.30
2022-08-28T17:57:49.713Z,4.53
2022-08-28T18:00:19.321Z,4.70
2022-08-28T18:02:52.070Z,4.10
2022-08-28T18:05:21.005Z,4.10
2022-08-28T18:07:49.444Z,4.40
2022-08-28T18:10:17.836Z,4.60
2022-08-28T18:12:48.166Z,4.53
2022-08-28T18:15:17.041Z,4.43
2022-08-28T18:17:50.345Z,4.28
2022-08-28T18:20:20.971Z,4.43
2022-08-28T18:22:49.689Z,4.50
2022-08-28T18:25:33.086Z,4.55
2022-08-28T18:28:01.770Z,4.43
2022-08-28T18:30:30.463Z,4.85
2022-08-28T18:32:59.448Z,5.05
2022-08-28T18:35:31.875Z,4.80
2022-08-28T18:38:01.630Z,4.60
2022-08-28T18:40:31.616Z,4.97
2022-08-28T18:43:00.693Z,5.40
2022-08-28T18:45:29.551Z,5.20
2022-08-28T18:47:58.562Z,5.28
2022-08-28T18:50:28.273Z,5.28
2022-08-28T18:52:59.391Z,5.50
2022-08-28T18:55:31.056Z,6.00
2022-08-28T18:58:02.199Z,5.75
2022-08-28T19:00:31.807Z,7.32
2022-08-28T19:03:00.453Z,6.70
2022-08-28T19:05:30.141Z,6.00
2022-08-28T19:08:02.232Z,5.85
2022-08-28T19:10:34.386Z,5.13
2022-08-28T19:13:04.006Z,5.32
2022-08-28T19:15:33.071Z,5.70
2022-08-28T19:18:02.967Z,5.82
2022-08-28T19:20:32.097Z,5.40
2022-08-28T19:23:02.007Z,5.88
2022-08-28T19:25:31.882Z,5.40
2022-08-28T19:28:01.645Z,4.40
2022-08-28T19:30:33.391Z,4.97
2022-08-28T19:33:03.715Z,4.88
2022-08-28T19:35:34.034Z,5.30
2022-08-28T19:38:03.766Z,5.22
2022-08-28T19:40:34.051Z,5.82
2022-08-28T19:43:02.935Z,7.15
2022-08-28T19:45:34.389Z,6.15
2022-08-28T19:48:03.257Z,6.22
2022-08-28T19:50:32.662Z,5.50
2022-08-28T19:53:01.121Z,5.30
2022-08-28T19:55:31.535Z,5.47
2022-08-28T19:58:00.467Z,5.45
2022-08-28T20:00:30.047Z,5.03
2022-08-28T20:02:58.800Z,5.40
2022-08-28T20:05:27.547Z,4.97
2022-08-28T20:07:55.942Z,5.18
2022-08-28T20:10:24.323Z,5.45
2022-08-28T20:12:55.011Z,5.47
2022-08-28T20:15:24.416Z,6.03
2022-08-28T20:17:52.832Z,5.50
2022-08-28T20:20:25.671Z,5.57
2022-08-28T20:22:58.343Z,5.45
2022-08-28T20:25:27.633Z,5.63
2022-08-28T20:28:01.532Z,5.72
2022-08-28T20:30:31.086Z,5.57
2022-08-28T20:33:01.227Z,5.32
2022-08-28T20:35:30.574Z,5.75
2022-08-28T20:37:58.947Z,5.68
2022-08-28T20:40:27.815Z,5.85
2022-08-28T20:42:59.960Z,5.40
2022-08-28T20:45:28.595Z,5.55
2022-08-28T20:47:57.692Z,5.63
2022-08-28T20:50:26.642Z,6.05
2022-08-28T20:52:55.947Z,5.97
2022-08-28T20:55:24.338Z,5.85
2022-08-28T20:57:53.341Z,5.60
2022-08-28T21:00:25.698Z,5.93
2022-08-28T21:02:54.493Z,6.47
2022-08-28T21:05:22.891Z,5.93
2022-08-28T21:07:51.606Z,6.30
2022-08-28T21:10:20.111Z,6.10
2022-08-28T21:12:48.814Z,6.35
2022-08-28T21:15:17.226Z,5.80
2022-08-28T21:17:48.527Z,6.72
2022-08-28T21:20:17.437Z,5.80
2022-08-28T21:22:47.314Z,5.93
2022-08-28T21:25:17.099Z,6.30
2022-08-28T21:27:47.335Z,6.53
2022-08-28T21:30:18.392Z,6.05
2022-08-28T21:32:51.229Z,7.07
2022-08-28T21:35:21.981Z,6.38
2022-08-28T21:37:51.115Z,6.35
2022-08-28T21:40:20.174Z,6.55
2022-08-28T21:42:48.409Z,6.93
2022-08-28T21:45:17.149Z,6.47
2022-08-28T21:47:48.391Z,6.28
2022-08-28T21:50:17.560Z,6.32
2022-08-28T21:52:46.329Z,6.28
2022-08-28T21:55:17.405Z,6.35
2022-08-28T21:57:47.016Z,7.25
2022-08-28T22:00:19.234Z,7.13
2022-08-28T22:02:49.571Z,6.95
2022-08-28T22:05:18.274Z,7.80
2022-08-28T22:07:47.189Z,7.32
2022-08-28T22:10:16.416Z,6.75
2022-08-28T22:12:44.853Z,6.55
2022-08-28T22:15:14.130Z,6.68
2022-08-28T22:17:42.478Z,6.97
2022-08-28T22:20:12.967Z,6.85
2022-08-28T22:22:59.162Z,7.25
2022-08-28T22:25:27.469Z,6.53
2022-08-28T22:27:56.430Z,6.50
2022-08-28T22:30:25.006Z,6.10
2022-08-28T22:32:53.855Z,6.55
2022-08-28T22:35:25.351Z,6.90
2022-08-28T22:37:53.778Z,6.63
2022-08-28T22:40:24.537Z,7.20
2022-08-28T22:42:52.893Z,7.20
2022-08-28T22:45:22.439Z,6.72
2022-08-28T22:47:51.570Z,7.07
2022-08-28T22:50:20.441Z,6.57
2022-08-28T22:52:51.262Z,6.90
2022-08-28T22:55:21.858Z,7.03
2022-08-28T22:57:51.712Z,7.47
2022-08-28T23:00:23.857Z,7.85
2022-08-28T23:02:54.366Z,7.20
2022-08-28T23:05:23.518Z,7.07
2022-08-28T23:07:55.000Z,7.82
2022-08-28T23:10:42.102Z,7.53
2022-08-28T23:13:14.594Z,7.43
2022-08-28T23:15:44.572Z,6.53
2022-08-28T23:18:13.062Z,6.88
2022-08-28T23:20:42.582Z,6.78
2022-08-28T23:23:12.900Z,7.05
2022-08-28T23:25:41.247Z,7.10
2022-08-28T23:28:10.387Z,7.20
2022-08-28T23:30:38.896Z,7.50
2022-08-28T23:33:08.801Z,8.07
2022-08-28T23:35:38.031Z,7.40
2022-08-28T23:38:07.320Z,8.02
2022-08-28T23:40:37.444Z,7.88
2022-08-28T23:43:06.647Z,8.40
2022-08-28T23:45:35.036Z,7.68
2022-08-28T23:48:04.635Z,7.65
2022-08-28T23:50:34.266Z,7.53
2022-08-28T23:53:03.242Z,8.70
2022-08-28T23:55:33.430Z,8.40
2022-08-28T23:58:04.113Z,8.00
